createdAt,value
2019-03-29T00:01:54.570Z,99176.73
2019-03-29T00:04:25.125Z,99166.89
2019-03-29T00:06:56.144Z,99172.21
2019-03-29T00:09:26.712Z,99172.21
2019-03-29T00:11:57.126Z,99174.81
2019-03-29T00:14:27.751Z,99168.63
2019-03-29T00:16:58.683Z,99165.50
2019-03-29T00:19:29.355Z,99173.02
2019-03-29T00:22:00.048Z,99174.66
2019-03-29T00:24:31.147Z,99176.67
2019-03-29T00:27:01.540Z,99176.67
2019-03-29T00:29:32.270Z,99179.86
2019-03-29T00:32:02.510Z,99170.94
2019-03-29T00:34:33.475Z,99167.48
2019-03-29T00:37:03.690Z,99167.48
2019-03-29T00:39:34.498Z,99160.48
2019-03-29T00:42:04.823Z,99160.48
2019-03-29T00:44:35.457Z,99144.97
2019-03-29T00:47:06.094Z,99144.78
2019-03-29T00:49:36.572Z,99146.86
2019-03-29T00:52:07.225Z,99142.65
2019-03-29T00:54:38.375Z,99135.19
2019-03-29T00:57:08.742Z,99136.27
2019-03-29T00:59:39.160Z,99129.22
2019-03-29T01:02:09.660Z,99129.22
2019-03-29T01:04:40.052Z,99124.98
2019-03-29T01:07:10.484Z,99124.98
2019-03-29T01:09:41.232Z,99120.36
2019-03-29T01:12:12.091Z,99120.36
2019-03-29T01:14:43.008Z,99115.26
2019-03-29T01:17:14.396Z,99115.26
2019-03-29T01:19:45.218Z,99116.25
2019-03-29T01:22:15.491Z,99116.25
2019-03-29T01:24:46.960Z,99111.39
2019-03-29T01:27:17.262Z,99109.07
2019-03-29T01:29:47.624Z,99099.81
2019-03-29T01:32:18.232Z,99099.81
2019-03-29T01:34:48.786Z,99099.35
2019-03-29T01:37:19.947Z,99101.27
2019-03-29T01:39:50.566Z,99098.48
2019-03-29T01:42:21.016Z,99102.72
2019-03-29T01:44:51.712Z,99102.72
2019-03-29T01:47:22.170Z,99093.10
2019-03-29T01:49:52.935Z,99093.10
2019-03-29T01:52:23.467Z,99087.84
2019-03-29T01:54:53.872Z,99087.84
2019-03-29T01:57:24.154Z,99089.23
2019-03-29T01:59:54.405Z,99089.23
2019-03-29T02:02:25.303Z,99081.70
2019-03-29T02:04:56.214Z,99079.70
2019-03-29T02:07:26.642Z,99076.84
2019-03-29T02:09:57.139Z,99073.72
2019-03-29T02:12:27.467Z,99073.09
2019-03-29T02:14:57.824Z,99073.09
2019-03-29T02:17:28.085Z,99068.86
2019-03-29T02:19:58.510Z,99068.86
2019-03-29T02:22:28.811Z,99053.64
2019-03-29T02:24:59.511Z,99057.23
2019-03-29T02:27:29.766Z,99057.54
2019-03-29T02:30:00.173Z,99051.03
2019-03-29T02:32:33.278Z,99055.33
2019-03-29T02:35:03.494Z,99057.13
2019-03-29T02:37:33.732Z,99047.63
2019-03-29T02:40:04.097Z,99039.41
2019-03-29T02:42:34.311Z,99047.17
2019-03-29T02:45:05.118Z,99047.23
2019-03-29T02:47:36.186Z,99047.70
2019-03-29T02:50:08.583Z,99043.70
2019-03-29T02:52:39.072Z,99050.11
2019-03-29T02:55:10.177Z,99043.46
2019-03-29T02:57:40.387Z,99039.13
2019-03-29T03:00:10.686Z,99042.20
2019-03-29T03:02:40.964Z,99042.20
2019-03-29T03:05:11.534Z,99042.06
2019-03-29T03:07:42.408Z,99045.91
2019-03-29T03:10:14.086Z,99038.73
2019-03-29T03:12:44.391Z,99045.52
2019-03-29T03:15:15.322Z,99040.06
2019-03-29T03:17:45.653Z,99044.11
2019-03-29T03:20:17.967Z,99032.42
2019-03-29T03:22:48.349Z,99044.05
2019-03-29T03:25:18.740Z,99038.38
2019-03-29T03:27:49.414Z,99038.78
2019-03-29T03:30:20.021Z,99033.94
2019-03-29T03:32:50.840Z,99042.14
2019-03-29T03:35:21.259Z,99042.14
2019-03-29T03:37:51.428Z,99045.45
2019-03-29T03:40:22.306Z,99042.13
2019-03-29T03:42:52.626Z,99044.12
2019-03-29T03:45:23.225Z,99037.62
2019-03-29T03:47:53.565Z,99037.62
2019-03-29T03:50:38.004Z,99042.20
2019-03-29T03:53:08.401Z,99042.20
2019-03-29T03:55:39.166Z,99040.13
2019-03-29T03:58:09.583Z,99038.48
2019-03-29T04:00:59.231Z,99038.48
2019-03-29T04:03:29.563Z,99042.55
2019-03-29T04:05:59.942Z,99038.09
2019-03-29T04:08:30.383Z,99037.62
2019-03-29T04:11:01.069Z,99043.13
2019-03-29T04:13:31.525Z,99038.67
2019-03-29T04:16:01.939Z,99038.86
2019-03-29T04:18:32.299Z,99036.36
2019-03-29T04:21:02.844Z,99041.73
2019-03-29T04:23:33.412Z,99038.86
2019-03-29T04:26:03.844Z,99040.00
2019-03-29T04:28:34.190Z,99035.08
2019-03-29T04:31:04.499Z,99033.81
2019-03-29T04:33:34.976Z,99033.81
2019-03-29T04:36:05.726Z,99034.45
2019-03-29T04:38:36.410Z,99031.48
2019-03-29T04:41:07.020Z,99031.48
2019-03-29T04:43:37.322Z,99038.91
2019-03-29T04:46:07.842Z,99043.77
2019-03-29T04:48:38.132Z,99040.47
2019-03-29T04:51:08.751Z,99044.27
2019-03-29T04:53:39.087Z,99038.39
2019-03-29T04:56:09.816Z,99039.81
2019-03-29T04:58:40.161Z,99042.94
2019-03-29T05:01:10.670Z,99038.67
2019-03-29T05:03:40.918Z,99035.54
2019-03-29T05:06:11.370Z,99035.54
2019-03-29T05:08:41.727Z,99036.88
2019-03-29T05:11:12.611Z,99037.40
2019-03-29T05:13:43.018Z,99039.42
2019-03-29T05:16:13.425Z,99034.14
2019-03-29T05:18:44.101Z,99034.34
2019-03-29T05:21:14.985Z,99034.14
2019-03-29T05:23:45.252Z,99035.95
2019-03-29T05:26:15.711Z,99026.80
2019-03-29T05:28:46.091Z,99037.52
2019-03-29T05:31:16.562Z,99037.52
2019-03-29T05:33:46.694Z,99027.49
2019-03-29T05:36:17.294Z,99027.49
2019-03-29T05:38:47.597Z,99032.00
2019-03-29T05:41:18.006Z,99032.00
2019-03-29T05:43:48.277Z,99030.38
2019-03-29T05:46:18.677Z,99027.38
2019-03-29T05:48:49.227Z,99027.38
2019-03-29T05:51:20.463Z,99028.03
2019-03-29T05:53:51.041Z,99032.26
2019-03-29T05:56:21.925Z,99032.26
2019-03-29T05:58:57.914Z,99034.50
2019-03-29T06:01:28.114Z,99029.50
2019-03-29T06:03:58.602Z,99029.50
2019-03-29T06:06:29.375Z,99033.37
2019-03-29T06:09:00.179Z,99025.34
2019-03-29T06:11:30.437Z,99026.23
2019-03-29T06:14:01.008Z,99027.20
2019-03-29T06:16:38.898Z,99027.20
2019-03-29T06:19:05.867Z,99018.05
2019-03-29T06:21:36.167Z,99018.05
2019-03-29T06:24:06.688Z,99023.27
2019-03-29T06:26:37.682Z,99026.95
2019-03-29T06:29:08.005Z,99026.95
2019-03-29T06:31:38.324Z,99023.75
2019-03-29T06:34:08.910Z,99017.42
2019-03-29T06:36:39.117Z,99015.15
2019-03-29T06:39:09.526Z,99015.84
2019-03-29T06:41:40.188Z,99018.50
2019-03-29T06:44:10.424Z,99018.50
2019-03-29T06:46:40.840Z,99016.54
2019-03-29T06:49:11.658Z,99012.34
2019-03-29T06:51:42.461Z,99012.34
2019-03-29T06:54:13.972Z,99013.84
2019-03-29T06:56:44.433Z,99013.84
2019-03-29T06:59:14.761Z,99012.03
2019-03-29T07:01:46.491Z,99017.28
2019-03-29T07:04:19.135Z,99015.41
2019-03-29T07:06:50.197Z,99011.64
2019-03-29T07:09:20.433Z,99011.64
2019-03-29T07:11:51.145Z,99018.25
2019-03-29T07:14:21.553Z,99011.45
2019-03-29T07:16:52.375Z,99010.03
2019-03-29T07:19:22.581Z,99010.03
2019-03-29T07:21:53.826Z,99006.06
2019-03-29T07:24:26.730Z,99006.06
2019-03-29T07:26:57.718Z,98998.50
2019-03-29T07:29:27.932Z,99003.73
2019-03-29T07:31:58.782Z,99003.73
2019-03-29T07:34:29.176Z,99005.95
2019-03-29T07:36:59.523Z,98996.75
2019-03-29T07:39:29.947Z,98996.84
2019-03-29T07:42:00.525Z,99001.39
2019-03-29T07:44:30.847Z,99003.52
2019-03-29T07:47:01.090Z,99003.52
2019-03-29T07:49:31.794Z,99002.03
2019-03-29T07:52:04.232Z,99003.11
2019-03-29T07:54:34.658Z,99003.11
2019-03-29T07:57:04.989Z,99003.37
2019-03-29T07:59:35.666Z,99004.70
2019-03-29T08:02:08.139Z,99005.95
2019-03-29T08:04:38.499Z,99006.72
2019-03-29T08:07:08.753Z,99006.72
2019-03-29T08:09:41.297Z,99008.44
2019-03-29T08:12:13.119Z,99011.48
2019-03-29T08:14:43.433Z,99015.22
2019-03-29T08:17:17.207Z,99015.22
2019-03-29T08:19:47.394Z,99011.56
2019-03-29T08:22:18.155Z,99006.66
2019-03-29T08:24:49.027Z,99007.12
2019-03-29T08:27:20.085Z,99010.56
2019-03-29T08:29:50.405Z,99010.55
2019-03-29T08:32:21.024Z,99001.42
2019-03-29T08:34:52.181Z,99001.42
2019-03-29T08:37:22.597Z,99001.96
2019-03-29T08:39:56.298Z,99001.06
2019-03-29T08:42:25.487Z,99004.67
2019-03-29T08:44:56.760Z,99002.37
2019-03-29T08:47:27.170Z,99002.37
2019-03-29T08:50:02.758Z,98998.91
2019-03-29T08:52:38.657Z,98998.91
2019-03-29T08:55:09.102Z,98996.13
2019-03-29T08:57:39.958Z,98989.44
2019-03-29T09:00:10.212Z,98989.25
2019-03-29T09:02:40.618Z,98987.87
2019-03-29T09:05:11.017Z,98980.56
2019-03-29T09:07:44.890Z,98983.62
2019-03-29T09:10:23.912Z,98983.62
2019-03-29T09:12:55.398Z,98978.44
2019-03-29T09:15:26.151Z,98979.27
2019-03-29T09:17:59.863Z,98975.27
2019-03-29T09:20:29.679Z,98971.06
2019-03-29T09:23:00.368Z,98970.17
2019-03-29T09:25:30.586Z,98967.86
2019-03-29T09:28:01.261Z,98963.66
2019-03-29T09:30:32.270Z,98961.19
2019-03-29T09:33:02.682Z,98957.48
2019-03-29T09:35:33.047Z,98958.66
2019-03-29T09:38:03.603Z,98959.52
2019-03-29T09:40:33.745Z,98953.70
2019-03-29T09:43:08.198Z,98953.70
2019-03-29T09:45:36.653Z,98949.29
2019-03-29T09:48:06.914Z,98949.29
2019-03-29T09:50:39.381Z,98953.62
2019-03-29T09:53:09.429Z,98957.06
2019-03-29T09:55:39.790Z,98947.70
2019-03-29T09:58:10.025Z,98947.70
2019-03-29T10:00:40.495Z,98944.17
2019-03-29T10:03:11.050Z,98942.11
2019-03-29T10:05:41.740Z,98933.88
2019-03-29T10:08:12.533Z,98933.88
2019-03-29T10:10:42.848Z,98929.31
2019-03-29T10:13:13.289Z,98930.17
2019-03-29T10:15:43.740Z,98930.17
2019-03-29T10:18:14.484Z,98921.06
2019-03-29T10:20:45.140Z,98920.20
2019-03-29T10:23:19.053Z,98911.14
2019-03-29T10:25:49.374Z,98904.44
2019-03-29T10:28:20.233Z,98900.31
2019-03-29T10:30:50.729Z,98900.66
2019-03-29T10:33:21.234Z,98900.66
2019-03-29T10:35:53.355Z,98894.69
2019-03-29T10:38:27.261Z,98897.77
2019-03-29T10:40:57.752Z,98902.97
2019-03-29T10:43:29.058Z,98899.70
2019-03-29T10:45:59.639Z,98899.70
2019-03-29T10:48:29.949Z,98892.12
2019-03-29T10:51:00.272Z,98882.06
2019-03-29T10:53:31.148Z,98881.55
2019-03-29T10:56:01.763Z,98881.55
2019-03-29T10:58:32.082Z,98871.63
2019-03-29T11:01:03.023Z,98868.78
2019-03-29T11:03:33.975Z,98861.94
2019-03-29T11:06:05.232Z,98861.30
2019-03-29T11:08:35.556Z,98861.30
2019-03-29T11:11:07.918Z,98858.14
2019-03-29T11:13:40.960Z,98858.14
2019-03-29T11:16:10.674Z,98859.98
2019-03-29T11:18:41.111Z,98851.36
2019-03-29T11:21:16.023Z,98847.35
2019-03-29T11:23:46.790Z,98845.07
2019-03-29T11:26:17.102Z,98841.45
2019-03-29T11:28:47.303Z,98835.97
2019-03-29T11:31:18.291Z,98829.45
2019-03-29T11:33:48.961Z,98827.02
2019-03-29T11:36:20.083Z,98827.02
2019-03-29T11:38:50.293Z,98827.52
2019-03-29T11:41:20.780Z,98816.83
2019-03-29T11:43:51.416Z,98814.61
2019-03-29T11:46:21.805Z,98812.55
2019-03-29T11:48:51.930Z,98808.71
2019-03-29T11:51:22.364Z,98807.92
2019-03-29T11:53:54.378Z,98802.09
2019-03-29T11:56:32.573Z,98801.96
2019-03-29T11:59:03.316Z,98793.27
2019-03-29T12:01:36.741Z,98788.77
2019-03-29T12:04:07.593Z,98788.77
2019-03-29T12:06:37.929Z,98782.09
2019-03-29T12:09:08.479Z,98782.09
2019-03-29T12:11:39.045Z,98774.25
2019-03-29T12:14:09.141Z,98774.25
2019-03-29T12:16:43.026Z,98760.72
2019-03-29T12:20:03.328Z,98760.72
2019-03-29T12:23:07.780Z,98758.57
2019-03-29T12:25:41.075Z,98758.57
2019-03-29T12:28:12.044Z,98753.62
2019-03-29T12:30:43.195Z,98749.77
2019-03-29T12:33:14.042Z,98749.77
2019-03-29T12:35:44.742Z,98742.66
2019-03-29T12:38:16.683Z,98742.66
2019-03-29T12:40:47.008Z,98732.97
2019-03-29T12:43:17.736Z,98732.97
2019-03-29T12:45:48.028Z,98730.08
2019-03-29T12:48:18.404Z,98730.08
2019-03-29T12:50:49.469Z,98724.48
2019-03-29T12:53:20.025Z,98719.30
2019-03-29T12:55:51.202Z,98713.66
2019-03-29T12:58:21.825Z,98713.66
2019-03-29T13:00:52.219Z,98707.61
2019-03-29T13:03:23.671Z,98694.30
2019-03-29T13:05:54.512Z,98694.53
2019-03-29T13:08:32.086Z,98694.53
2019-03-29T13:11:03.022Z,98691.38
2019-03-29T13:13:33.489Z,98691.38
2019-03-29T13:16:03.774Z,98686.42
2019-03-29T13:18:34.200Z,98675.24
2019-03-29T13:21:04.780Z,98673.61
2019-03-29T13:23:35.351Z,98673.61
2019-03-29T13:26:05.707Z,98668.23
2019-03-29T13:28:37.184Z,98657.45
2019-03-29T13:31:08.137Z,98657.45
2019-03-29T13:33:38.639Z,98663.39
2019-03-29T13:36:09.781Z,98651.73
2019-03-29T13:38:40.036Z,98652.07
2019-03-29T13:41:13.032Z,98652.07
2019-03-29T13:43:43.676Z,98641.98
2019-03-29T13:46:14.376Z,98645.67
2019-03-29T13:48:44.836Z,98639.39
2019-03-29T13:51:15.593Z,98642.72
2019-03-29T13:53:47.281Z,98623.91
2019-03-29T13:56:19.732Z,98623.91
2019-03-29T13:58:52.140Z,98620.03
2019-03-29T14:01:26.905Z,98620.28
2019-03-29T14:03:58.150Z,98611.35
2019-03-29T14:06:30.927Z,98603.69
2019-03-29T14:09:01.309Z,98603.05
2019-03-29T14:11:31.721Z,98603.19
2019-03-29T14:14:02.254Z,98603.19
2019-03-29T14:16:32.738Z,98601.61
2019-03-29T14:19:03.128Z,98601.61
2019-03-29T14:21:35.342Z,98594.75
2019-03-29T14:24:05.962Z,98592.56
2019-03-29T14:26:36.506Z,98592.56
2019-03-29T14:29:06.762Z,98586.70
2019-03-29T14:31:38.219Z,98585.73
2019-03-29T14:34:08.448Z,98582.64
2019-03-29T14:36:38.733Z,98580.59
2019-03-29T14:39:09.586Z,98577.45
2019-03-29T14:41:39.907Z,98566.45
2019-03-29T14:44:10.330Z,98566.45
2019-03-29T14:46:41.084Z,98566.61
2019-03-29T14:49:11.401Z,98560.19
2019-03-29T14:51:41.996Z,98552.79
2019-03-29T14:54:16.010Z,98553.03
2019-03-29T14:56:46.571Z,98553.03
2019-03-29T14:59:17.279Z,98546.75
2019-03-29T15:01:47.455Z,98540.05
2019-03-29T15:04:17.765Z,98539.33
2019-03-29T15:06:48.415Z,98540.41
2019-03-29T15:09:30.683Z,98531.14
2019-03-29T15:12:07.074Z,98531.14
2019-03-29T15:14:40.743Z,98529.77
2019-03-29T15:17:11.269Z,98517.23
2019-03-29T15:19:41.529Z,98517.23
2019-03-29T15:22:12.143Z,98525.06
2019-03-29T15:24:45.134Z,98520.36
2019-03-29T15:27:16.304Z,98512.44
2019-03-29T15:29:46.743Z,98507.57
2019-03-29T15:32:20.181Z,98503.55
2019-03-29T15:34:50.312Z,98503.55
2019-03-29T15:37:20.640Z,98496.33
2019-03-29T15:39:51.150Z,98499.98
2019-03-29T15:42:21.295Z,98491.05
2019-03-29T15:44:53.032Z,98491.05
2019-03-29T15:47:24.711Z,98479.00
2019-03-29T15:49:58.380Z,98482.11
2019-03-29T15:52:29.771Z,98477.77
2019-03-29T15:55:00.405Z,98474.56
2019-03-29T15:57:31.201Z,98480.05
2019-03-29T16:00:01.862Z,98469.47
2019-03-29T16:02:32.223Z,98472.52
2019-03-29T16:05:02.435Z,98472.52
2019-03-29T16:07:34.975Z,98460.48
2019-03-29T16:10:05.706Z,98460.48
2019-03-29T16:12:36.413Z,98453.23
2019-03-29T16:15:06.986Z,98453.23
2019-03-29T16:17:39.093Z,98448.69
2019-03-29T16:20:10.253Z,98448.69
2019-03-29T16:22:40.675Z,98441.17
2019-03-29T16:25:11.392Z,98441.17
2019-03-29T16:27:44.474Z,98443.19
2019-03-29T16:30:15.189Z,98435.66
2019-03-29T16:32:45.705Z,98432.13
2019-03-29T16:35:15.874Z,98429.64
2019-03-29T16:37:56.664Z,98422.99
2019-03-29T16:40:18.775Z,98432.49
2019-03-29T16:42:50.976Z,98431.77
2019-03-29T16:45:23.636Z,98431.77
2019-03-29T16:47:56.011Z,98427.98
2019-03-29T16:50:26.023Z,98429.59
2019-03-29T16:52:56.639Z,98424.55
2019-03-29T16:55:28.649Z,98422.98
2019-03-29T16:57:59.231Z,98422.33
2019-03-29T17:00:31.260Z,98422.33
2019-03-29T17:03:03.581Z,98422.48
2019-03-29T17:05:36.909Z,98422.48
2019-03-29T17:08:07.076Z,98421.19
2019-03-29T17:10:37.201Z,98423.65
2019-03-29T17:13:07.600Z,98424.50
2019-03-29T17:15:38.407Z,98427.59
2019-03-29T17:18:08.688Z,98427.59
2019-03-29T17:20:39.160Z,98430.99
2019-03-29T17:23:09.754Z,98430.99
2019-03-29T17:25:43.631Z,98435.35
2019-03-29T17:28:19.355Z,98431.80
2019-03-29T17:30:56.225Z,98436.70
2019-03-29T17:33:26.634Z,98436.95
2019-03-29T17:35:59.228Z,98436.95
2019-03-29T17:38:29.927Z,98434.76
2019-03-29T17:41:00.230Z,98435.62
2019-03-29T17:43:32.271Z,98433.81
2019-03-29T17:46:15.421Z,98443.80
2019-03-29T17:48:34.517Z,98442.02
2019-03-29T17:51:04.739Z,98439.94
2019-03-29T17:53:35.324Z,98439.94
2019-03-29T17:56:05.803Z,98445.20
2019-03-29T17:58:35.942Z,98444.48
2019-03-29T18:01:06.765Z,98439.03
2019-03-29T18:03:37.550Z,98439.03
2019-03-29T18:06:10.183Z,98440.47
2019-03-29T18:08:40.743Z,98440.47
2019-03-29T18:11:11.249Z,98444.58
2019-03-29T18:13:41.382Z,98444.58
2019-03-29T18:16:13.432Z,98446.51
2019-03-29T18:18:45.941Z,98446.51
2019-03-29T18:21:19.673Z,98443.78
2019-03-29T18:23:50.422Z,98443.78
2019-03-29T18:26:23.581Z,98449.02
2019-03-29T18:28:54.128Z,98453.77
2019-03-29T18:31:26.100Z,98453.77
2019-03-29T18:33:56.462Z,98459.38
2019-03-29T18:36:29.636Z,98454.89
2019-03-29T18:38:59.849Z,98455.42
2019-03-29T18:41:30.367Z,98455.20
2019-03-29T18:44:01.366Z,98455.20
2019-03-29T18:46:44.559Z,98455.73
2019-03-29T18:49:06.267Z,98455.73
2019-03-29T18:51:36.473Z,98453.92
2019-03-29T18:54:08.884Z,98453.70
2019-03-29T18:56:39.255Z,98452.25
2019-03-29T18:59:10.863Z,98452.25
2019-03-29T19:01:42.491Z,98454.58
2019-03-29T19:04:13.884Z,98458.38
2019-03-29T19:06:45.173Z,98454.37
2019-03-29T19:09:15.596Z,98458.25
2019-03-29T19:11:46.312Z,98459.73
2019-03-29T19:14:16.652Z,98460.95
2019-03-29T19:16:58.243Z,98463.53
2019-03-29T19:19:19.371Z,98463.53
2019-03-29T19:21:50.173Z,98463.76
2019-03-29T19:24:21.691Z,98460.83
2019-03-29T19:26:55.295Z,98463.52
2019-03-29T19:29:28.114Z,98463.52
2019-03-29T19:32:00.795Z,98461.07
2019-03-29T19:34:31.230Z,98466.67
2019-03-29T19:37:01.807Z,98461.53
2019-03-29T19:39:32.561Z,98463.22
2019-03-29T19:42:05.331Z,98463.22
2019-03-29T19:44:36.132Z,98461.88
2019-03-29T19:47:13.829Z,98461.88
2019-03-29T19:49:40.459Z,98463.67
2019-03-29T19:52:13.818Z,98457.56
2019-03-29T19:54:48.109Z,98457.56
2019-03-29T19:57:19.151Z,98461.44
2019-03-29T19:59:52.685Z,98463.47
2019-03-29T20:02:23.145Z,98461.48
2019-03-29T20:04:55.491Z,98464.39
2019-03-29T20:07:32.015Z,98457.00
2019-03-29T20:12:40.649Z,98462.25
2019-03-29T20:15:11.430Z,98462.25
2019-03-29T20:17:45.039Z,98456.98
2019-03-29T20:20:20.104Z,98461.22
2019-03-29T20:22:50.723Z,98461.22
2019-03-29T20:25:21.231Z,98456.72
2019-03-29T20:27:51.644Z,98450.59
2019-03-29T20:30:22.167Z,98453.30
2019-03-29T20:32:52.515Z,98453.86
2019-03-29T20:35:22.713Z,98451.98
2019-03-29T20:37:53.211Z,98451.98
2019-03-29T20:40:23.944Z,98447.08
2019-03-29T20:42:54.471Z,98454.11
2019-03-29T20:45:26.663Z,98452.25
2019-03-29T20:47:57.393Z,98451.55
2019-03-29T20:50:33.426Z,98451.55
2019-03-29T20:53:03.809Z,98445.72
2019-03-29T20:55:34.023Z,98445.72
2019-03-29T20:58:05.266Z,98446.90
2019-03-29T21:00:35.693Z,98446.90
2019-03-29T21:03:06.057Z,98447.90
2019-03-29T21:05:36.365Z,98445.59
2019-03-29T21:08:10.138Z,98443.19
2019-03-29T21:10:54.568Z,98443.19
2019-03-29T21:13:13.514Z,98442.22
2019-03-29T21:15:43.909Z,98442.22
2019-03-29T21:18:17.351Z,98434.25
2019-03-29T21:20:48.699Z,98435.11
2019-03-29T21:23:19.061Z,98437.52
2019-03-29T21:25:49.550Z,98436.03
2019-03-29T21:28:20.143Z,98429.20
2019-03-29T21:30:50.447Z,98432.42
2019-03-29T21:33:20.733Z,98434.23
2019-03-29T21:35:51.592Z,98434.23
2019-03-29T21:38:25.568Z,98428.64
2019-03-29T21:40:57.914Z,98428.05
2019-03-29T21:43:29.184Z,98428.05
2019-03-29T21:45:59.666Z,98424.47
2019-03-29T21:48:32.581Z,98419.42
2019-03-29T21:51:03.359Z,98415.47
2019-03-29T21:53:34.094Z,98409.55
2019-03-29T21:56:08.191Z,98407.53
2019-03-29T21:58:38.462Z,98412.23
2019-03-29T22:01:09.306Z,98410.41
2019-03-29T22:03:39.819Z,98410.41
2019-03-29T22:06:11.493Z,98407.30
2019-03-29T22:08:42.154Z,98406.88
2019-03-29T22:11:13.159Z,98406.88
2019-03-29T22:13:47.260Z,98404.96
2019-03-29T22:16:23.723Z,98402.39
2019-03-29T22:18:54.607Z,98395.65
2019-03-29T22:21:24.832Z,98397.56
2019-03-29T22:23:55.823Z,98397.56
2019-03-29T22:26:26.049Z,98393.37
2019-03-29T22:28:56.425Z,98393.37
2019-03-29T22:31:27.459Z,98390.92
2019-03-29T22:33:58.102Z,98390.92
2019-03-29T22:36:28.344Z,98385.97
2019-03-29T22:38:58.744Z,98378.70
2019-03-29T22:41:29.315Z,98376.52
2019-03-29T22:43:59.793Z,98375.13
2019-03-29T22:46:31.130Z,98375.27
2019-03-29T22:49:01.718Z,98375.27
2019-03-29T22:51:32.549Z,98369.25
2019-03-29T22:54:03.173Z,98363.63
2019-03-29T22:56:33.977Z,98380.95
2019-03-29T22:59:04.300Z,98371.21
2019-03-29T23:01:35.922Z,98371.21
2019-03-29T23:04:06.167Z,98366.82
2019-03-29T23:06:36.892Z,98370.67
2019-03-29T23:09:11.602Z,98361.13
2019-03-29T23:11:40.655Z,98361.61
2019-03-29T23:14:11.185Z,98361.61
2019-03-29T23:16:41.550Z,98356.20
2019-03-29T23:19:11.806Z,98357.26
2019-03-29T23:21:42.562Z,98357.26
2019-03-29T23:24:13.243Z,98349.18
2019-03-29T23:26:43.929Z,98349.18
2019-03-29T23:29:14.675Z,98345.05
2019-03-29T23:31:45.407Z,98335.83
2019-03-29T23:34:16.148Z,98335.83
2019-03-29T23:36:47.189Z,98335.19
2019-03-29T23:39:18.122Z,98337.29
2019-03-29T23:41:48.497Z,98327.94
2019-03-29T23:44:18.859Z,98325.66
2019-03-29T23:46:49.259Z,98325.66
2019-03-29T23:49:21.200Z,98328.23
2019-03-29T23:51:51.818Z,98328.23
2019-03-29T23:54:22.002Z,98325.17
2019-03-29T23:56:52.415Z,98318.21
2019-03-29T23:59:22.677Z,98327.56
